Denny Terrace, South Carolina
Current Conditions -  °F | °C
As of 9:53 PM on Friday 28 Nov 2014 (Local Time) from KCUB Reporting Station
Clear Clear  
Wind Chill: 34°   Ceiling: Unl
Heat Index: 34°   Visibility: 7mi
Dew Point: 29°   Wind: 0mph
Humidity: 82%   Direction: NA
Pressure: 30.34"   Gusts: NA
Location:  34.1179°N, 81.0612°W
Report Text: KCUB 290253Z AUTO 00000KT 7SM CLR 01/M02 A3034 RMK AO2 SLP273 T00111017 58001
Loading
Personal Weather Stations






























Interactive Weather Map New forecast layout! Learn more

10-Day Weather Forecast

Advertisements
Track Severe Weather on mobile